Time;durP1;ratioP1;P1;durP2;ratioP2;P2;SDS_P1;SDS_P2;PMS_P1;PMS_P2;Temp;Humidity;BMP_temperature;BMP_pressure;BME280_temperature;BME280_humidity;BME280_pressure;Samples;Min_cycle;Max_cycle;Signal;HPM_P1;HPM_P2
2023/07/24 00:00:24;;;;;;;4.05;2.88;;;18.00;99.90;;;-144.05;90.32;56935.91;5050850;28;20029;-84
2023/07/24 00:02:50;;;;;;;5.55;3.13;;;18.10;99.90;;;-144.05;90.95;56918.94;5050629;28;20032;-85
2023/07/24 00:05:16;;;;;;;5.18;2.63;;;18.00;99.90;;;-144.05;90.72;56929.53;5050625;28;20499;-84
2023/07/24 00:07:42;;;;;;;5.35;2.67;;;18.00;99.90;;;-144.05;90.95;56929.53;5050563;28;20029;-81
2023/07/24 00:10:08;;;;;;;4.13;2.50;;;18.00;99.90;;;-144.05;90.74;56918.94;5050451;28;20029;-83
2023/07/24 00:12:34;;;;;;;4.00;2.72;;;18.00;99.90;;;-144.05;91.43;56923.19;5051941;28;20057;-83
2023/07/24 00:15:00;;;;;;;4.03;2.85;;;17.90;99.90;;;-144.05;92.01;56899.81;5051836;28;20053;-84
2023/07/24 00:17:26;;;;;;;3.90;2.83;;;17.90;99.90;;;-144.05;91.95;56895.56;5051911;28;20528;-83
2023/07/24 00:19:52;;;;;;;4.93;2.95;;;17.90;99.90;;;-144.05;92.56;56912.56;5050599;28;20033;-84
2023/07/24 00:22:17;;;;;;;6.38;2.80;;;17.90;99.90;;;-144.05;92.39;56929.53;5051035;28;20043;-85
2023/07/24 00:24:43;;;;;;;3.10;2.55;;;17.80;99.90;;;-144.05;92.27;56929.53;5050855;28;20052;-84
2023/07/24 00:27:09;;;;;;;6.65;2.95;;;17.80;99.90;;;-144.05;92.59;56925.28;5050164;28;20033;-84
2023/07/24 00:29:35;;;;;;;8.00;3.30;;;17.80;99.90;;;-144.05;92.45;56914.69;5050176;28;20033;-83
2023/07/24 00:32:01;;;;;;;6.72;3.40;;;17.80;99.90;;;-144.05;92.54;56942.28;5051751;28;20431;-84
2023/07/24 00:34:27;;;;;;;3.97;2.80;;;17.70;99.90;;;-144.05;92.46;56921.06;5051736;28;20029;-83
2023/07/24 00:36:52;;;;;;;5.28;2.95;;;17.70;99.90;;;-144.05;92.55;56921.06;5050096;28;20029;-83
2023/07/24 00:39:18;;;;;;;4.30;2.65;;;17.70;99.90;;;-144.05;91.98;56942.28;5049757;28;20029;-84
2023/07/24 00:41:44;;;;;;;8.00;3.10;;;17.60;99.90;;;-144.05;92.34;56912.56;5049838;28;20401;-83
2023/07/24 00:44:10;;;;;;;5.00;2.90;;;17.60;99.90;;;-144.05;92.15;56910.44;5050335;28;20388;-83
2023/07/24 00:46:37;;;;;;;3.60;2.80;;;17.60;99.90;;;-144.05;92.63;56923.19;5050585;28;20033;-83
2023/07/24 00:49:05;;;;;;;5.55;3.10;;;17.60;99.90;;;-144.05;92.66;56884.94;5050457;28;20128;-82
2023/07/24 00:51:33;;;;;;;4.05;3.22;;;17.50;99.90;;;-144.05;92.51;56916.81;5050208;28;20423;-85
2023/07/24 00:54:05;;;;;;;5.05;3.60;;;17.50;99.90;;;-144.05;93.64;56916.81;5050260;28;20114;-84
2023/07/24 00:56:33;;;;;;;4.95;3.17;;;17.50;99.90;;;-144.05;94.34;56940.16;5051853;28;20104;-82
2023/07/24 00:59:01;;;;;;;4.45;2.95;;;17.50;99.90;;;-144.05;94.36;56908.31;5055372;28;20749;-83
2023/07/24 01:01:28;;;;;;;4.40;3.28;;;17.50;99.90;;;-144.05;94.35;56906.19;5055895;28;20036;-82
2023/07/24 01:03:57;;;;;;;4.53;3.22;;;17.50;99.90;;;-144.05;94.51;56929.53;5054828;28;20029;-81
2023/07/24 01:06:24;;;;;;;6.50;3.63;;;17.50;99.90;;;-144.05;94.75;56904.06;5066379;28;20017;-82
2023/07/24 01:08:50;;;;;;;4.55;3.38;;;17.50;99.90;;;-144.05;94.66;56929.53;5071560;28;20041;-83
2023/07/24 01:11:24;;;;;;;6.70;3.65;;;17.50;99.90;;;-144.05;94.64;56927.41;5055902;28;20560;-84
2023/07/24 01:14:16;;;;;;;5.78;3.30;;;17.50;99.90;;;-144.05;94.56;56918.94;5074560;28;20059;-84
2023/07/24 01:16:45;;;;;;;7.07;3.30;;;17.50;99.90;;;-144.05;92.91;56916.81;5075465;28;20037;-84
2023/07/24 01:19:46;;;;;;;5.20;3.03;;;17.50;99.90;;;-144.05;94.17;56927.41;5074454;28;20037;-85
2023/07/24 01:22:28;;;;;;;4.55;2.95;;;17.50;99.90;;;-144.05;93.87;56931.66;5065822;28;20023;-84
2023/07/24 01:25:35;;;;;;;5.78;3.72;;;17.50;99.90;;;-144.05;94.08;56916.81;5058651;28;20032;-84
2023/07/24 01:28:01;;;;;;;6.25;2.97;;;17.50;99.90;;;-144.05;94.01;56925.28;5054260;28;20060;-83
2023/07/24 01:30:27;;;;;;;7.22;3.40;;;17.50;99.90;;;-144.05;94.06;56933.78;5055050;28;20495;-82
2023/07/24 01:32:53;;;;;;;4.10;2.55;;;17.60;99.90;;;-144.05;93.35;56923.19;5055188;28;20052;-84
2023/07/24 01:35:19;;;;;;;5.35;3.15;;;17.60;99.90;;;-144.05;93.35;56929.53;5057965;28;20055;-85
2023/07/24 01:37:48;;;;;;;6.45;3.00;;;17.60;99.90;;;-144.05;93.10;56910.44;5056303;28;20064;-84
2023/07/24 01:40:15;;;;;;;4.40;2.75;;;17.60;99.90;;;-144.05;92.85;56921.06;5056255;28;20039;-84
2023/07/24 01:42:42;;;;;;;4.13;2.90;;;17.70;99.90;;;-144.05;92.66;56925.28;5056279;28;20389;-86
2023/07/24 01:45:09;;;;;;;3.35;2.63;;;17.70;99.90;;;-144.05;92.01;56891.31;5055955;28;20033;-84
2023/07/24 01:47:34;;;;;;;4.55;2.67;;;17.60;99.90;;;-144.05;91.93;56899.81;5055497;28;20491;-86
2023/07/24 01:50:00;;;;;;;3.97;2.85;;;17.60;99.90;;;-144.05;91.57;56942.28;5057711;28;20057;-86
2023/07/24 01:52:26;;;;;;;5.50;2.90;;;17.60;99.90;;;-144.05;91.65;56897.69;5056620;28;20045;-85
2023/07/24 01:54:52;;;;;;;5.45;2.90;;;17.60;99.90;;;-144.05;91.96;56925.28;5058298;28;20032;-86
2023/07/24 01:57:18;;;;;;;4.78;2.83;;;17.50;99.90;;;-144.05;91.94;56942.28;5057689;28;20025;-84
2023/07/24 01:59:44;;;;;;;3.35;2.90;;;17.50;99.90;;;-144.05;92.07;56929.53;5064791;28;20016;-83
2023/07/24 02:02:10;;;;;;;5.20;2.90;;;17.50;99.90;;;-144.05;92.19;56923.19;5077684;28;20043;-82
2023/07/24 02:04:36;;;;;;;7.03;3.08;;;17.50;99.90;;;-144.05;91.19;56950.78;5065759;28;20053;-83
2023/07/24 02:07:03;;;;;;;4.90;2.97;;;17.50;99.90;;;-144.05;91.80;56914.69;5053963;28;20065;-83
2023/07/24 02:09:28;;;;;;;5.50;2.90;;;17.40;99.90;;;-144.05;91.41;56914.69;5052904;28;20365;-83
2023/07/24 02:11:54;;;;;;;4.03;2.92;;;17.40;99.90;;;-144.05;91.53;56916.81;5052623;28;20032;-83
2023/07/24 02:14:21;;;;;;;6.13;2.80;;;17.40;99.90;;;-144.05;91.61;56918.94;5054023;28;20029;-83
2023/07/24 02:16:46;;;;;;;6.65;3.08;;;17.40;99.90;;;-144.05;91.84;56929.53;5052572;28;20025;-82
2023/07/24 02:19:12;;;;;;;5.20;2.80;;;17.40;99.90;;;-144.05;91.46;56925.28;5052417;28;20378;-83
2023/07/24 02:21:40;;;;;;;6.32;3.30;;;17.40;99.90;;;-144.05;91.33;56910.44;5052412;28;20050;-83
2023/07/24 02:24:06;;;;;;;6.32;3.13;;;17.30;99.90;;;-144.05;91.52;56927.41;5052498;28;20033;-83
2023/07/24 02:26:32;;;;;;;6.07;3.50;;;17.40;99.90;;;-144.05;91.38;56925.28;5055515;28;20028;-82
2023/07/24 02:28:58;;;;;;;5.97;3.20;;;17.30;99.90;;;-144.05;91.81;56923.19;5055482;28;20082;-83
2023/07/24 02:31:25;;;;;;;6.50;3.55;;;17.30;99.90;;;-144.05;92.04;56882.81;5055244;28;20028;-84
2023/07/24 02:33:51;;;;;;;4.40;2.80;;;17.40;99.90;;;-144.05;92.39;56933.78;5055623;28;20096;-84
2023/07/24 02:36:17;;;;;;;6.70;3.92;;;17.30;99.90;;;-144.05;93.20;56923.19;5055757;28;20058;-83
2023/07/24 02:38:43;;;;;;;6.65;3.20;;;17.40;99.90;;;-144.05;92.53;56929.53;5055602;28;20049;-83
2023/07/24 02:41:08;;;;;;;4.53;3.10;;;17.50;99.90;;;-144.05;91.83;56916.81;5055572;28;20074;-83
2023/07/24 02:43:34;;;;;;;8.02;3.75;;;17.50;99.90;;;-144.05;92.10;56923.19;5072041;28;20024;-83
2023/07/24 02:46:02;;;;;;;8.60;3.67;;;17.50;99.90;;;-144.05;91.93;56923.19;5055428;28;20102;-84
2023/07/24 02:48:28;;;;;;;6.22;3.17;;;17.50;99.90;;;-144.05;91.84;56908.31;5073413;28;20093;-84
2023/07/24 02:50:55;;;;;;;6.43;3.50;;;17.50;99.90;;;-144.05;91.55;56906.19;5073718;28;20028;-84
2023/07/24 02:53:21;;;;;;;5.97;3.60;;;17.60;99.90;;;-144.05;91.03;56921.06;5055585;28;20060;-82
2023/07/24 02:55:46;;;;;;;7.45;3.40;;;17.60;99.90;;;-144.05;90.57;56895.56;5055464;28;20115;-84
2023/07/24 02:58:14;;;;;;;5.38;3.88;;;17.60;99.90;;;-144.05;91.03;56916.81;5056642;28;20388;-84
2023/07/24 03:00:40;;;;;;;8.38;3.80;;;17.70;99.90;;;-144.05;91.03;56901.94;5075827;28;20044;-82
2023/07/24 03:03:06;;;;;;;7.43;3.80;;;17.70;99.90;;;-144.05;91.17;56927.41;5063984;28;20457;-83
2023/07/24 03:05:34;;;;;;;8.15;4.30;;;17.70;99.90;;;-144.05;90.62;56918.94;5073239;28;20056;-83
2023/07/24 03:08:00;;;;;;;7.80;3.72;;;17.80;99.90;;;-144.05;90.61;56921.06;5054994;28;20024;-84
2023/07/24 03:10:27;;;;;;;8.02;4.32;;;17.80;99.90;;;-144.05;90.47;56904.06;5054730;28;20480;-83
2023/07/24 03:12:53;;;;;;;6.78;4.03;;;17.80;99.90;;;-144.05;89.95;56929.53;5057030;28;20033;-85
2023/07/24 03:15:19;;;;;;;9.35;3.92;;;17.90;99.90;;;-144.05;89.14;56916.81;5058164;28;20021;-83
2023/07/24 03:17:45;;;;;;;5.82;3.85;;;17.90;99.90;;;-144.05;88.67;56918.94;5076547;28;20031;-85
2023/07/24 03:20:17;;;;;;;6.05;4.07;;;17.90;99.90;;;-144.05;88.45;56923.19;5058236;28;20025;-85
2023/07/24 03:22:45;;;;;;;7.63;3.65;;;17.90;99.90;;;-144.05;88.76;56918.94;5064077;28;20024;-86
2023/07/24 03:25:11;;;;;;;7.47;4.28;;;18.00;99.90;;;-144.05;89.69;56912.56;5072425;28;20421;-86
2023/07/24 03:27:37;;;;;;;6.00;3.72;;;18.00;99.90;;;-144.05;90.49;56938.03;5076496;28;20056;-84
2023/07/24 03:30:04;;;;;;;9.60;4.30;;;17.90;99.90;;;-144.05;91.54;56916.81;5070060;28;20033;-84
2023/07/24 03:32:29;;;;;;;6.22;3.97;;;17.90;99.90;;;-144.05;91.79;56912.56;5068245;28;20025;-85
2023/07/24 03:34:55;;;;;;;8.05;4.30;;;17.80;99.90;;;-144.05;91.56;56927.41;5056276;28;20031;-87
2023/07/24 03:37:21;;;;;;;9.55;4.68;;;17.90;99.90;;;-144.05;92.04;56931.66;5057150;28;20036;-86
2023/07/24 03:39:47;;;;;;;8.13;4.45;;;17.90;99.90;;;-144.05;91.93;56914.69;5054023;28;20120;-84
2023/07/24 03:42:31;;;;;;;8.68;4.30;;;17.80;99.90;;;-144.05;92.06;56931.66;5053049;28;20123;-85
2023/07/24 03:44:58;;;;;;;5.47;4.05;;;17.80;99.90;;;-144.05;92.08;56904.06;5053878;28;20423;-83
2023/07/24 03:47:24;;;;;;;10.13;4.22;;;17.80;99.90;;;-144.05;92.40;56933.78;5052538;28;20033;-83
2023/07/24 03:49:51;;;;;;;10.75;4.75;;;17.80;99.90;;;-144.05;92.71;56916.81;5053079;28;20087;-84
2023/07/24 03:52:17;;;;;;;13.77;5.05;;;17.80;99.90;;;-144.05;92.93;56929.53;5053114;28;20029;-83
2023/07/24 03:54:43;;;;;;;7.55;4.40;;;17.80;99.90;;;-144.05;92.34;56925.28;5053339;28;20036;-85
2023/07/24 03:57:09;;;;;;;9.73;4.28;;;17.70;99.90;;;-144.05;92.90;56925.28;5053393;28;20021;-84
2023/07/24 03:59:36;;;;;;;8.85;4.35;;;17.70;99.90;;;-144.05;92.54;56931.66;5052503;28;20068;-83
2023/07/24 04:02:02;;;;;;;8.07;4.32;;;17.70;99.90;;;-144.05;92.67;56914.69;5051252;28;20556;-84
2023/07/24 04:04:28;;;;;;;9.13;4.47;;;17.70;99.90;;;-144.05;92.67;56921.06;5050639;28;20033;-85
2023/07/24 04:06:53;;;;;;;8.15;4.20;;;17.70;99.90;;;-144.05;93.04;56914.69;5050699;28;20469;-83
2023/07/24 04:09:19;;;;;;;7.05;4.20;;;17.70;99.90;;;-144.05;93.50;56931.66;5050539;28;20059;-84
2023/07/24 04:11:45;;;;;;;6.80;3.60;;;17.70;99.90;;;-144.05;93.05;56923.19;5050377;28;20021;-84
2023/07/24 04:14:11;;;;;;;6.82;4.15;;;17.70;99.90;;;-144.05;92.43;56910.44;5050736;28;20048;-83
2023/07/24 04:16:37;;;;;;;7.85;4.15;;;17.70;99.90;;;-144.05;93.12;56938.03;5050719;28;20064;-84
2023/07/24 04:19:03;;;;;;;6.53;4.40;;;17.70;99.90;;;-144.05;93.27;56942.28;5051109;28;20059;-84
2023/07/24 04:21:29;;;;;;;8.98;4.43;;;17.70;99.90;;;-144.05;92.99;56916.81;5050678;28;20025;-84
2023/07/24 04:23:55;;;;;;;5.75;4.30;;;17.70;99.90;;;-144.05;92.58;56921.06;5050893;28;20066;-84
2023/07/24 04:26:21;;;;;;;9.63;4.03;;;17.70;99.90;;;-144.05;92.39;56916.81;5050554;28;20060;-82
2023/07/24 04:28:47;;;;;;;9.80;4.55;;;17.70;99.90;;;-144.05;92.80;56931.66;5050497;28;20061;-84
2023/07/24 04:31:13;;;;;;;9.45;4.65;;;17.70;99.90;;;-144.05;92.68;56912.56;5050252;28;20120;-84
2023/07/24 04:33:39;;;;;;;6.43;4.38;;;17.70;99.90;;;-144.05;93.07;56933.78;5051951;28;20087;-83
2023/07/24 04:36:05;;;;;;;8.50;4.25;;;17.80;99.90;;;-144.05;93.08;56916.81;5052181;28;20083;-84
2023/07/24 04:38:31;;;;;;;7.95;4.47;;;17.70;99.90;;;-144.05;92.61;56931.66;5050349;28;20435;-84
2023/07/24 04:40:57;;;;;;;7.25;3.97;;;17.80;99.90;;;-144.05;91.93;56904.06;5051869;28;20025;-83
2023/07/24 04:43:23;;;;;;;10.30;4.65;;;17.80;99.90;;;-144.05;91.76;56910.44;5050519;28;20047;-85
2023/07/24 04:45:48;;;;;;;7.28;4.28;;;17.80;99.90;;;-144.05;92.23;56916.81;5050354;28;20025;-83
2023/07/24 04:48:14;;;;;;;6.43;4.15;;;17.80;99.90;;;-144.05;91.58;56929.53;5050928;28;20068;-84
2023/07/24 04:50:40;;;;;;;9.82;4.85;;;17.90;99.90;;;-144.05;91.62;56933.78;5052205;28;20032;-84
2023/07/24 04:53:06;;;;;;;9.20;4.07;;;17.90;99.90;;;-144.05;92.01;56923.19;5061944;28;20040;-82
2023/07/24 04:55:32;;;;;;;5.47;4.25;;;17.90;99.90;;;-144.05;91.93;56942.28;5072552;28;20033;-84
2023/07/24 04:57:57;;;;;;;6.25;4.18;;;17.90;99.90;;;-144.05;91.16;56944.41;5059422;28;20048;-83
2023/07/24 05:00:23;;;;;;;7.18;4.32;;;17.90;99.90;;;-144.05;91.56;56940.16;5075294;28;20020;-85
2023/07/24 05:02:49;;;;;;;6.88;4.30;;;17.80;99.90;;;-144.05;91.68;56916.81;5072442;28;20187;-83
2023/07/24 05:05:15;;;;;;;11.55;4.85;;;17.80;99.90;;;-144.05;92.14;56925.28;5051626;28;20028;-83
2023/07/24 05:07:41;;;;;;;9.75;4.35;;;17.80;99.90;;;-144.05;91.90;56921.06;5052693;28;20044;-85
2023/07/24 05:10:07;;;;;;;7.93;4.72;;;17.80;99.90;;;-144.05;92.59;56944.41;5054157;28;20025;-85
2023/07/24 05:12:33;;;;;;;7.05;4.22;;;17.80;99.90;;;-144.05;92.13;56938.03;5056850;28;20032;-83
2023/07/24 05:14:59;;;;;;;7.97;4.50;;;17.80;99.90;;;-144.05;92.15;56952.91;5055877;28;20467;-86
2023/07/24 05:17:25;;;;;;;6.55;4.57;;;17.80;99.90;;;-144.05;93.19;56908.31;5056051;28;20037;-85
2023/07/24 05:19:51;;;;;;;8.73;4.35;;;17.80;99.90;;;-144.05;94.11;56918.94;5052575;28;20116;-86
2023/07/24 05:22:16;;;;;;;7.50;4.18;;;17.80;99.90;;;-144.05;94.89;56921.06;5051561;28;20398;-86
2023/07/24 05:24:42;;;;;;;11.07;5.15;;;17.70;99.90;;;-144.05;95.49;56914.69;5053127;28;20493;-84
2023/07/24 05:27:08;;;;;;;8.77;4.68;;;17.70;99.90;;;-144.05;95.59;56933.78;5051906;28;20040;-87
2023/07/24 05:29:34;;;;;;;9.27;4.35;;;17.60;99.90;;;-144.05;94.85;56931.66;5053490;28;20033;-85
2023/07/24 05:32:00;;;;;;;6.57;4.70;;;17.60;99.90;;;-144.05;95.91;56921.06;5052218;28;20026;-87
2023/07/24 05:34:26;;;;;;;7.55;4.55;;;17.70;99.90;;;-144.05;95.93;56912.56;5052514;28;20389;-85
2023/07/24 05:36:52;;;;;;;10.70;5.03;;;17.70;99.90;;;-144.05;96.01;56942.28;5052426;28;20021;-84
2023/07/24 05:39:18;;;;;;;12.45;5.65;;;17.80;99.90;;;-144.05;95.17;56933.78;5052307;28;20036;-86
2023/07/24 05:41:44;;;;;;;6.25;4.82;;;17.80;99.90;;;-144.05;94.69;56940.16;5053154;28;20033;-85
2023/07/24 05:44:09;;;;;;;8.85;5.43;;;17.80;99.90;;;-144.05;93.57;56923.19;5056485;28;20029;-85
2023/07/24 05:46:35;;;;;;;9.13;4.85;;;17.90;99.90;;;-144.05;93.46;56918.94;5056821;28;20025;-87
2023/07/24 05:49:01;;;;;;;8.05;4.88;;;17.90;99.90;;;-144.05;93.37;56925.28;5058224;28;20172;-87
2023/07/24 05:51:28;;;;;;;11.35;5.20;;;18.00;99.90;;;-144.05;92.70;56916.81;5064837;28;20063;-83
2023/07/24 05:53:53;;;;;;;10.13;4.80;;;18.00;99.90;;;-144.05;92.24;56933.78;5078506;28;20047;-83
2023/07/24 05:56:19;;;;;;;7.47;4.82;;;18.10;99.90;;;-144.05;92.20;56935.91;5066532;28;20064;-84
2023/07/24 05:58:45;;;;;;;8.32;5.25;;;18.10;99.90;;;-144.05;91.69;56925.28;5054470;28;20040;-83
2023/07/24 06:01:11;;;;;;;9.70;4.85;;;18.10;99.90;;;-144.05;93.02;56967.78;5054281;28;20033;-84
2023/07/24 06:03:38;;;;;;;8.48;4.65;;;18.10;99.90;;;-144.05;92.51;56931.66;5054595;28;20087;-86
2023/07/24 06:06:05;;;;;;;8.30;5.43;;;18.10;99.90;;;-144.05;92.52;56925.28;5054764;28;20036;-82
2023/07/24 06:08:30;;;;;;;10.10;5.50;;;18.10;99.90;;;-144.05;93.62;56957.16;5054620;28;20056;-83
2023/07/24 06:10:56;;;;;;;10.57;4.72;;;18.20;99.90;;;-144.05;92.79;56948.66;5053842;28;20527;-84
2023/07/24 06:13:22;;;;;;;8.80;5.13;;;18.20;99.90;;;-144.05;91.98;56952.91;5055205;28;20049;-83
2023/07/24 06:15:51;;;;;;;8.15;5.10;;;18.30;99.90;;;-144.05;91.54;56925.28;5054107;28;20396;-83
2023/07/24 06:18:17;;;;;;;9.73;4.88;;;18.30;99.90;;;-144.05;91.30;56952.91;5053899;28;20365;-83
2023/07/24 06:20:43;;;;;;;7.38;4.65;;;18.30;99.90;;;-144.05;90.77;56946.53;5053005;28;20033;-82
2023/07/24 06:23:09;;;;;;;6.88;4.88;;;18.40;99.90;;;-144.05;90.11;56948.66;5055158;28;20116;-85
2023/07/24 06:25:35;;;;;;;8.27;4.40;;;18.30;99.90;;;-144.05;90.63;56940.16;5053234;28;20029;-82
2023/07/24 06:28:01;;;;;;;8.45;4.63;;;18.40;99.90;;;-144.05;90.24;56910.44;5054854;28;20033;-83
2023/07/24 06:30:27;;;;;;;7.63;5.03;;;18.40;99.90;;;-144.05;89.76;56942.28;5053866;28;20426;-85
2023/07/24 06:32:53;;;;;;;7.63;4.88;;;18.70;99.90;;;-144.05;87.48;56925.28;5053666;28;20534;-85
2023/07/24 06:35:18;;;;;;;7.93;3.80;;;18.80;99.90;;;-144.05;87.71;56946.53;5037155;28;20029;-84
2023/07/24 06:37:45;;;;;;;6.57;3.88;;;18.80;99.90;;;-144.05;87.90;56916.81;5053721;28;20120;-83
2023/07/24 06:40:11;;;;;;;8.90;4.95;;;18.60;99.90;;;-144.05;89.37;56914.69;5054635;28;20064;-83
2023/07/24 06:42:40;;;;;;;10.70;4.40;;;18.40;99.90;;;-144.05;90.30;56931.66;5054738;28;20087;-82
2023/07/24 06:45:07;;;;;;;5.72;4.40;;;18.40;99.90;;;-144.05;90.91;56959.28;5063411;28;20035;-80
2023/07/24 06:47:33;;;;;;;9.02;4.70;;;18.40;99.90;;;-144.05;90.54;56931.66;5072181;28;20381;-83
2023/07/24 06:49:59;;;;;;;10.68;5.57;;;18.30;99.90;;;-144.05;92.36;56927.41;5053586;28;20032;-84
2023/07/24 06:52:25;;;;;;;7.57;5.32;;;18.40;99.90;;;-144.05;90.76;56974.16;5053723;28;20436;-84
2023/07/24 06:54:50;;;;;;;7.25;4.78;;;18.50;99.90;;;-144.05;89.36;56940.16;5051756;28;20028;-85
2023/07/24 06:57:16;;;;;;;9.50;5.57;;;18.60;99.90;;;-144.05;90.85;56942.28;5054165;28;20183;-84
2023/07/24 06:59:42;;;;;;;7.72;5.35;;;18.70;99.90;;;-144.05;90.07;56942.28;5054960;28;20033;-82
2023/07/24 07:02:08;;;;;;;8.63;5.53;;;18.80;99.90;;;-144.05;90.27;56942.28;5053560;28;20032;-84
2023/07/24 07:04:34;;;;;;;8.85;5.40;;;18.90;99.90;;;-144.05;88.79;56938.03;5054266;28;20021;-84
2023/07/24 07:07:00;;;;;;;10.52;5.05;;;18.90;99.90;;;-144.05;88.86;56942.28;5052661;28;20102;-84
2023/07/24 07:09:26;;;;;;;9.32;5.15;;;18.90;99.90;;;-144.05;88.63;56931.66;5058462;28;20517;-83
2023/07/24 07:11:51;;;;;;;9.27;4.50;;;19.00;99.90;;;-144.05;86.81;56933.78;5055556;28;20032;-83
2023/07/24 07:14:17;;;;;;;7.47;5.03;;;19.10;99.90;;;-144.05;85.74;56946.53;5072468;28;20064;-84
2023/07/24 07:16:44;;;;;;;8.48;4.68;;;19.20;99.90;;;-144.05;84.94;56931.66;5057696;28;20060;-85
2023/07/24 07:19:10;;;;;;;9.90;4.55;;;19.50;99.90;;;-144.05;82.84;56976.28;5056992;28;20032;-83
2023/07/24 07:21:36;;;;;;;11.15;4.75;;;19.70;99.90;;;-144.05;82.82;56972.03;5056268;28;20025;-83
2023/07/24 07:24:02;;;;;;;6.20;4.28;;;20.20;99.90;;;-144.05;78.68;56995.38;5057833;28;20025;-83
2023/07/24 07:26:29;;;;;;;6.07;4.47;;;20.40;99.90;;;-144.05;78.10;56965.66;5059550;28;20128;-83
2023/07/24 07:28:55;;;;;;;8.60;4.05;;;20.20;99.90;;;-144.05;78.21;56946.53;5057861;28;20460;-83
2023/07/24 07:31:21;;;;;;;5.30;4.25;;;20.10;99.90;;;-144.05;79.48;56976.28;5061006;28;20024;-84
2023/07/24 07:33:48;;;;;;;6.05;4.32;;;20.10;99.90;;;-144.05;77.16;56931.66;5058831;28;20031;-84
2023/07/24 07:36:14;;;;;;;9.45;4.35;;;20.10;99.90;;;-144.05;77.49;56963.53;5057688;28;20037;-84
2023/07/24 07:38:40;;;;;;;6.32;4.28;;;20.10;99.90;;;-144.05;78.69;56963.53;5058514;28;20025;-82
2023/07/24 07:41:06;;;;;;;6.85;4.43;;;20.00;99.90;;;-144.05;78.38;56938.03;5061488;28;20392;-83
2023/07/24 07:43:33;;;;;;;7.10;4.15;;;20.00;99.90;;;-144.05;77.71;56957.16;5057653;28;20036;-86
2023/07/24 07:45:59;;;;;;;5.85;3.70;;;19.80;99.90;;;-144.05;79.14;56948.66;5058551;28;20028;-83
2023/07/24 07:48:25;;;;;;;6.28;3.72;;;19.70;99.90;;;-144.05;77.57;56972.03;5076383;28;20082;-83
2023/07/24 07:50:52;;;;;;;7.15;3.80;;;19.70;99.90;;;-144.05;78.09;56967.78;5057447;28;20115;-83
2023/07/24 07:53:18;;;;;;;6.22;4.60;;;19.80;99.90;;;-144.05;78.35;56963.53;5058199;28;20550;-84
2023/07/24 07:55:44;;;;;;;7.05;3.85;;;19.70;99.90;;;-144.05;78.22;56963.53;5058197;28;20024;-83
2023/07/24 07:58:10;;;;;;;5.50;3.83;;;19.60;99.90;;;-144.05;77.63;56959.28;5059280;28;20115;-84
2023/07/24 08:00:36;;;;;;;7.60;4.30;;;19.50;99.90;;;-144.05;78.60;56959.28;5062229;28;20047;-84
2023/07/24 08:03:01;;;;;;;6.03;3.97;;;19.40;99.90;;;-144.05;78.53;56950.78;5075477;28;20035;-82
2023/07/24 08:05:28;;;;;;;4.35;3.40;;;19.40;99.90;;;-144.05;78.53;56963.53;5057450;28;20033;-83
2023/07/24 08:07:54;;;;;;;6.97;4.40;;;19.40;99.90;;;-144.05;78.22;56948.66;5057340;28;20093;-84
2023/07/24 08:10:20;;;;;;;5.47;3.75;;;19.40;99.90;;;-144.05;78.11;56972.03;5075371;28;20041;-82
2023/07/24 08:12:45;;;;;;;5.50;3.97;;;19.40;99.90;;;-144.05;77.98;56959.28;5056436;28;20327;-84
2023/07/24 08:15:11;;;;;;;6.38;3.90;;;19.40;99.90;;;-144.05;78.25;56942.28;5057096;28;20417;-85
2023/07/24 08:17:37;;;;;;;5.65;3.70;;;19.30;99.90;;;-144.05;78.81;56957.16;5057259;28;20021;-83
2023/07/24 08:20:04;;;;;;;8.45;4.45;;;19.40;99.90;;;-144.05;79.13;56929.53;5057189;28;20024;-84
2023/07/24 08:22:30;;;;;;;6.63;4.03;;;19.30;99.90;;;-144.05;79.65;56948.66;5075267;28;20043;-83
2023/07/24 08:24:56;;;;;;;8.35;4.47;;;19.30;99.90;;;-144.05;79.40;56942.28;5058429;28;20033;-83
2023/07/24 08:27:22;;;;;;;9.32;4.13;;;19.30;99.90;;;-144.05;78.33;56974.16;5062788;28;20043;-83
2023/07/24 08:29:52;;;;;;;5.53;3.72;;;19.70;99.90;;;-144.05;76.10;56989.00;5054997;28;20029;-86
2023/07/24 08:32:19;;;;;;;7.15;3.75;;;20.20;99.90;;;-144.05;73.99;56950.78;5056611;28;20025;-84
2023/07/24 08:34:45;;;;;;;9.88;2.90;;;20.50;99.90;;;-144.05;72.12;56984.78;5066681;28;20070;-83
2023/07/24 08:37:14;;;;;;;5.53;3.35;;;21.00;99.90;;;-144.05;69.41;56980.53;5068677;28;20072;-83
2023/07/24 08:39:41;;;;;;;6.93;3.38;;;21.40;99.90;;;-144.05;67.20;56986.91;5053678;28;20029;-82
2023/07/24 08:42:12;;;;;;;9.30;3.65;;;21.70;99.90;;;-144.05;66.88;56976.28;5053963;28;20093;-84
2023/07/24 08:44:39;;;;;;;4.82;3.28;;;22.00;99.90;;;-144.05;66.40;56984.78;5056854;28;20116;-84
2023/07/24 08:47:13;;;;;;;5.25;3.20;;;22.00;99.90;;;-144.05;65.40;57010.25;5056294;28;20032;-84
2023/07/24 08:49:42;;;;;;;5.63;2.95;;;22.00;99.90;;;-144.05;66.22;56980.53;5039113;28;20508;-83
2023/07/24 08:52:09;;;;;;;7.47;3.55;;;21.60;99.90;;;-144.05;66.09;56991.13;5052618;28;20116;-84
2023/07/24 08:54:37;;;;;;;5.97;3.33;;;21.60;99.90;;;-144.05;68.38;57001.75;5053913;28;20025;-83
2023/07/24 08:57:07;;;;;;;5.22;3.50;;;21.60;99.90;;;-144.05;66.63;57008.13;5052983;28;20029;-84
2023/07/24 08:59:34;;;;;;;5.25;3.00;;;21.50;99.90;;;-144.05;67.29;57001.75;5057861;28;20452;-84
2023/07/24 09:02:01;;;;;;;4.47;2.97;;;21.30;99.90;;;-144.05;66.74;56993.25;5058000;28;20040;-83
2023/07/24 09:04:28;;;;;;;5.18;3.15;;;21.30;99.90;;;-144.05;66.94;56978.41;5055902;28;20400;-84
2023/07/24 09:06:57;;;;;;;6.82;3.08;;;21.20;99.90;;;-144.05;67.47;56976.28;5053212;28;20461;-83
2023/07/24 09:09:28;;;;;;;5.82;2.88;;;20.90;99.90;;;-144.05;67.39;56986.91;5054726;28;20482;-84
2023/07/24 09:11:55;;;;;;;4.50;2.95;;;20.70;99.90;;;-144.05;68.89;56963.53;5052941;28;20025;-83
2023/07/24 09:14:30;;;;;;;3.90;2.72;;;20.50;99.90;;;-144.05;68.79;56961.41;5052866;28;20485;-82
2023/07/24 09:17:22;;;;;;;6.28;3.08;;;20.40;99.90;;;-144.05;69.32;56963.53;5052769;28;20040;-82
2023/07/24 09:19:57;;;;;;;3.15;2.35;;;20.30;99.90;;;-144.05;69.86;56972.03;5053760;28;20104;-83
2023/07/24 09:22:26;;;;;;;3.13;2.45;;;20.30;99.90;;;-144.05;69.60;56965.66;5056450;28;20040;-83
2023/07/24 09:24:57;;;;;;;8.38;3.13;;;20.30;99.90;;;-144.05;70.09;56976.28;5061828;28;20044;-85
2023/07/24 09:27:28;;;;;;;4.05;2.97;;;20.20;99.90;;;-144.05;69.52;56967.78;5063283;28;20029;-84
2023/07/24 09:29:57;;;;;;;5.32;2.88;;;20.10;99.90;;;-144.05;70.80;56957.16;5061370;28;20089;-83
2023/07/24 09:32:27;;;;;;;3.55;2.67;;;20.20;99.90;;;-144.05;70.08;56965.66;5077032;28;20485;-84
2023/07/24 09:34:54;;;;;;;4.43;2.63;;;20.10;99.90;;;-144.05;70.52;56961.41;5084203;28;20014;-84
2023/07/24 09:37:31;;;;;;;4.13;2.40;;;20.20;99.90;;;-144.05;70.12;56982.66;5068191;28;20032;-86
2023/07/24 09:39:58;;;;;;;4.00;2.47;;;20.30;99.90;;;-144.05;70.06;56984.78;5067143;28;20017;-85
2023/07/24 09:42:35;;;;;;;5.95;2.75;;;20.40;99.90;;;-144.05;70.27;56963.53;5069822;28;20063;-82
2023/07/24 09:45:08;;;;;;;3.22;2.22;;;20.30;99.90;;;-144.05;69.08;56976.28;5058976;28;20033;-84
2023/07/24 09:47:35;;;;;;;5.45;3.00;;;20.50;99.90;;;-144.05;68.72;56999.63;5058182;28;20029;-84
2023/07/24 09:50:04;;;;;;;3.22;2.35;;;20.70;99.90;;;-144.05;68.45;56942.28;5058097;28;20116;-86
2023/07/24 09:52:31;;;;;;;3.47;2.30;;;20.60;99.90;;;-144.05;68.58;56986.91;5057909;28;20028;-87
2023/07/24 09:55:29;;;;;;;4.32;2.70;;;20.40;99.90;;;-144.05;70.51;56955.03;5065095;28;20024;-84
2023/07/24 09:57:58;;;;;;;5.25;2.42;;;20.10;99.90;;;-144.05;70.12;56984.78;5078557;28;20100;-82
2023/07/24 10:00:25;;;;;;;5.20;2.63;;;20.00;99.90;;;-144.05;70.14;56963.53;5066735;28;20095;-82
2023/07/24 10:02:52;;;;;;;6.03;2.75;;;20.00;99.90;;;-144.05;69.96;56976.28;5055844;28;20075;-85
2023/07/24 10:05:18;;;;;;;3.70;2.20;;;20.10;99.90;;;-144.05;70.10;56942.28;5056261;28;20033;-82